createdAt,value
2019-04-27T00:00:57.559Z,101248.46
2019-04-27T00:03:41.487Z,101249.33
2019-04-27T00:06:13.565Z,101240.13
2019-04-27T00:08:47.121Z,101248.75
2019-04-27T00:11:42.090Z,101255.28
2019-04-27T00:14:15.001Z,101247.42
2019-04-27T00:17:00.286Z,101249.05
2019-04-27T00:19:46.351Z,101241.87
2019-04-27T00:22:27.628Z,101241.87
2019-04-27T00:24:58.084Z,101239.36
2019-04-27T00:27:28.590Z,101228.41
2019-04-27T00:29:58.209Z,101211.39
2019-04-27T00:32:28.453Z,101202.53
2019-04-27T00:34:58.036Z,101199.77
2019-04-27T00:37:47.569Z,101198.52
2019-04-27T00:40:30.332Z,101194.89
2019-04-27T00:43:00.143Z,101188.77
2019-04-27T00:45:30.898Z,101187.01
2019-04-27T00:48:00.308Z,101187.78
2019-04-27T00:50:33.661Z,101176.47
2019-04-27T00:53:04.672Z,101173.15
2019-04-27T00:55:38.040Z,101170.64
2019-04-27T00:58:27.820Z,101173.91
2019-04-27T01:01:14.986Z,101170.19
2019-04-27T01:03:49.206Z,101164.52
2019-04-27T01:06:18.800Z,101156.66
2019-04-27T01:08:48.450Z,101142.70
2019-04-27T01:11:18.012Z,101124.68
2019-04-27T01:13:48.885Z,101124.03
2019-04-27T01:16:22.036Z,101129.16
2019-04-27T01:18:52.316Z,101136.84
2019-04-27T01:21:22.893Z,101136.95
2019-04-27T01:23:54.207Z,101145.58
2019-04-27T01:26:45.558Z,101143.01
2019-04-27T01:29:19.406Z,101148.95
2019-04-27T01:31:52.289Z,101152.67
2019-04-27T01:34:23.897Z,101154.05
2019-04-27T01:36:55.776Z,101150.89
2019-04-27T01:39:25.396Z,101139.82
2019-04-27T01:41:54.967Z,101130.74
2019-04-27T01:44:25.373Z,101132.84
2019-04-27T01:46:55.082Z,101136.24
2019-04-27T01:49:26.320Z,101133.42
2019-04-27T01:51:55.719Z,101130.23
2019-04-27T01:54:26.918Z,101138.92
2019-04-27T01:56:56.402Z,101137.84
2019-04-27T01:59:25.884Z,101145.40
2019-04-27T02:02:19.028Z,101148.15
2019-04-27T02:05:11.795Z,101151.19
2019-04-27T02:07:44.124Z,101148.84
2019-04-27T02:10:14.534Z,101159.91
2019-04-27T02:12:48.706Z,101158.50
2019-04-27T02:15:19.233Z,101157.05
2019-04-27T02:17:50.950Z,101153.47
2019-04-27T02:20:23.010Z,101147.24
2019-04-27T02:22:54.414Z,101146.09
2019-04-27T02:25:25.070Z,101135.19
2019-04-27T02:28:00.743Z,101135.30
2019-04-27T02:31:09.572Z,101139.43
2019-04-27T02:33:44.808Z,101132.77
2019-04-27T02:36:15.909Z,101138.56
2019-04-27T02:38:46.614Z,101140.48
2019-04-27T02:41:19.844Z,101141.23
2019-04-27T02:44:02.834Z,101145.29
2019-04-27T02:46:35.559Z,101147.21
2019-04-27T02:49:07.390Z,101148.66
2019-04-27T02:52:15.281Z,101141.27
2019-04-27T02:54:46.240Z,101136.50
2019-04-27T02:57:16.733Z,101133.24
2019-04-27T02:59:46.193Z,101134.11
2019-04-27T03:02:40.473Z,101123.76
2019-04-27T03:05:13.140Z,101127.52
2019-04-27T03:07:46.270Z,101118.91
2019-04-27T03:10:16.961Z,101122.34
2019-04-27T03:12:51.016Z,101117.64
2019-04-27T03:15:30.506Z,101113.27
2019-04-27T03:18:10.813Z,101115.41
2019-04-27T03:20:52.103Z,101124.59
2019-04-27T03:23:21.571Z,101129.98
2019-04-27T03:26:15.673Z,101127.59
2019-04-27T03:28:46.672Z,101134.75
2019-04-27T03:31:21.381Z,101136.80
2019-04-27T03:33:58.321Z,101126.99
2019-04-27T03:36:21.977Z,101117.81
2019-04-27T03:38:52.050Z,101112.45
2019-04-27T03:41:25.225Z,101113.61
2019-04-27T03:43:55.850Z,101115.23
2019-04-27T03:46:26.600Z,101113.24
2019-04-27T03:48:59.982Z,101105.02
2019-04-27T03:51:35.632Z,101118.30
2019-04-27T03:54:24.358Z,101112.58
2019-04-27T03:57:19.951Z,101104.00
2019-04-27T04:00:00.859Z,101100.74
2019-04-27T04:02:31.706Z,101097.13
2019-04-27T04:05:03.112Z,101100.92
2019-04-27T04:07:35.630Z,101104.86
2019-04-27T04:10:07.015Z,101106.95
2019-04-27T04:12:50.060Z,101111.16
2019-04-27T04:15:31.495Z,101116.03
2019-04-27T04:18:03.236Z,101120.91
2019-04-27T04:20:32.750Z,101118.63
2019-04-27T04:23:03.626Z,101115.84
2019-04-27T04:25:34.425Z,101108.95
2019-04-27T04:28:05.772Z,101109.84
2019-04-27T04:30:35.381Z,101106.09
2019-04-27T04:33:05.093Z,101107.24
2019-04-27T04:35:36.402Z,101116.14
2019-04-27T04:38:06.825Z,101112.70
2019-04-27T04:40:42.771Z,101111.83
2019-04-27T04:43:21.648Z,101104.20
2019-04-27T04:46:22.985Z,101113.48
2019-04-27T04:48:53.805Z,101117.86
2019-04-27T04:51:27.031Z,101109.66
2019-04-27T04:53:56.497Z,101114.53
2019-04-27T04:56:29.187Z,101106.61
2019-04-27T04:59:00.194Z,101113.67
2019-04-27T05:01:30.093Z,101109.37
2019-04-27T05:04:01.333Z,101109.87
2019-04-27T05:06:31.253Z,101112.54
2019-04-27T05:09:04.460Z,101117.98
2019-04-27T05:11:35.071Z,101119.58
2019-04-27T05:14:04.572Z,101117.31
2019-04-27T05:16:34.085Z,101115.31
2019-04-27T05:19:06.373Z,101123.23
2019-04-27T05:21:38.787Z,101115.89
2019-04-27T05:24:09.502Z,101108.90
2019-04-27T05:26:39.730Z,101114.42
2019-04-27T05:29:10.362Z,101106.48
2019-04-27T05:31:42.232Z,101104.39
2019-04-27T05:34:12.889Z,101108.20
2019-04-27T05:36:48.484Z,101100.55
2019-04-27T05:39:18.041Z,101099.65
2019-04-27T05:41:45.812Z,101104.90
2019-04-27T05:44:24.361Z,101099.02
2019-04-27T05:47:11.750Z,101092.25
2019-04-27T05:49:42.835Z,101097.56
2019-04-27T05:52:30.156Z,101091.27
2019-04-27T05:55:02.716Z,101085.77
2019-04-27T05:57:33.234Z,101088.19
2019-04-27T06:00:05.055Z,101088.07
2019-04-27T06:02:34.619Z,101082.78
2019-04-27T06:05:05.924Z,101086.86
2019-04-27T06:07:35.550Z,101080.40
2019-04-27T06:10:05.427Z,101080.29
2019-04-27T06:12:35.035Z,101072.73
2019-04-27T06:15:09.507Z,101076.38
2019-04-27T06:17:39.312Z,101073.17
2019-04-27T06:20:10.312Z,101068.52
2019-04-27T06:22:39.837Z,101074.82
2019-04-27T06:25:11.845Z,101074.17
2019-04-27T06:27:41.911Z,101080.28
2019-04-27T06:30:12.733Z,101075.45
2019-04-27T06:32:43.253Z,101069.66
2019-04-27T06:35:14.792Z,101073.68
2019-04-27T06:37:44.274Z,101070.20
2019-04-27T06:40:15.490Z,101066.16
2019-04-27T06:42:48.509Z,101070.03
2019-04-27T06:45:19.668Z,101070.30
2019-04-27T06:47:51.298Z,101065.73
2019-04-27T06:50:21.802Z,101070.42
2019-04-27T06:52:51.791Z,101065.58
2019-04-27T06:55:21.414Z,101059.09
2019-04-27T06:57:51.081Z,101052.72
2019-04-27T07:00:20.901Z,101053.55
2019-04-27T07:02:50.400Z,101050.26
2019-04-27T07:05:21.205Z,101040.41
2019-04-27T07:07:50.675Z,101030.70
2019-04-27T07:10:20.280Z,101049.84
2019-04-27T07:12:50.015Z,101042.20
2019-04-27T07:15:21.359Z,101037.77
2019-04-27T07:17:50.887Z,101033.53
2019-04-27T07:20:20.588Z,101027.48
2019-04-27T07:22:51.338Z,101025.36
2019-04-27T07:25:20.914Z,101028.95
2019-04-27T07:27:50.711Z,101023.00
2019-04-27T07:30:20.329Z,101023.33
2019-04-27T07:32:49.881Z,101024.85
2019-04-27T07:35:20.723Z,101018.12
2019-04-27T07:37:51.213Z,101021.48
2019-04-27T07:40:20.654Z,101018.90
2019-04-27T07:42:55.892Z,101012.78
2019-04-27T07:45:33.155Z,101017.02
2019-04-27T07:48:02.859Z,101016.63
2019-04-27T07:50:32.516Z,101020.23
2019-04-27T07:53:03.106Z,101011.67
2019-04-27T07:55:33.141Z,101010.44
2019-04-27T07:58:05.228Z,101012.75
2019-04-27T08:00:34.863Z,101014.48
2019-04-27T08:03:04.324Z,101015.53
2019-04-27T08:05:35.310Z,101012.20
2019-04-27T08:08:04.891Z,101010.63
2019-04-27T08:10:34.525Z,101011.67
2019-04-27T08:13:06.489Z,101006.20
2019-04-27T08:15:39.481Z,101003.07
2019-04-27T08:18:09.155Z,100995.39
2019-04-27T08:20:39.144Z,100995.75
2019-04-27T08:23:10.215Z,100999.64
2019-04-27T08:25:39.888Z,100990.41
2019-04-27T08:28:21.460Z,100993.87
2019-04-27T08:31:00.524Z,100991.20
2019-04-27T08:33:35.088Z,101005.39
2019-04-27T08:36:06.045Z,100996.16
2019-04-27T08:38:38.973Z,100997.98
2019-04-27T08:41:10.302Z,101001.74
2019-04-27T08:43:39.986Z,100998.52
2019-04-27T08:46:12.204Z,100993.63
2019-04-27T08:48:45.338Z,100989.45
2019-04-27T08:51:16.312Z,100995.81
2019-04-27T08:53:47.515Z,100993.47
2019-04-27T08:56:19.368Z,100980.89
2019-04-27T08:58:49.939Z,100988.38
2019-04-27T09:01:20.745Z,100984.75
2019-04-27T09:03:53.379Z,100981.28
2019-04-27T09:06:24.708Z,100979.11
2019-04-27T09:09:03.466Z,100979.67
2019-04-27T09:11:46.044Z,100975.97
2019-04-27T09:14:33.548Z,100975.32
2019-04-27T09:17:26.048Z,100975.48
2019-04-27T09:20:28.630Z,100967.50
2019-04-27T09:22:59.216Z,100966.13
2019-04-27T09:25:31.397Z,100964.27
2019-04-27T09:28:04.155Z,100970.16
2019-04-27T09:30:35.201Z,100961.20
2019-04-27T09:33:05.350Z,100964.86
2019-04-27T09:35:35.638Z,100960.61
2019-04-27T09:38:07.113Z,100949.84
2019-04-27T09:40:37.041Z,100949.73
2019-04-27T09:43:08.487Z,100953.11
2019-04-27T09:45:39.598Z,100950.57
2019-04-27T09:48:11.083Z,100943.55
2019-04-27T09:50:42.478Z,100939.89
2019-04-27T09:53:13.043Z,100942.61
2019-04-27T09:55:42.743Z,100946.80
2019-04-27T09:58:14.022Z,100941.06
2019-04-27T10:00:45.833Z,100937.54
2019-04-27T10:03:15.532Z,100934.34
2019-04-27T10:05:46.360Z,100947.78
2019-04-27T10:08:16.987Z,100940.02
2019-04-27T10:10:49.222Z,100917.80
2019-04-27T10:13:20.673Z,100917.80
2019-04-27T10:15:51.200Z,100919.22
2019-04-27T10:18:20.783Z,100914.19
2019-04-27T10:21:01.249Z,100906.71
2019-04-27T10:23:23.837Z,100915.91
2019-04-27T10:25:55.746Z,100923.31
2019-04-27T10:28:25.283Z,100918.09
2019-04-27T10:30:55.730Z,100918.09
2019-04-27T10:33:27.684Z,100908.53
2019-04-27T10:35:57.310Z,100904.21
2019-04-27T10:38:26.950Z,100906.38
2019-04-27T10:40:56.833Z,100901.69
2019-04-27T10:43:26.329Z,100895.91
2019-04-27T10:45:57.239Z,100886.23
2019-04-27T10:48:28.011Z,100888.79
2019-04-27T10:50:58.555Z,100888.79
2019-04-27T10:53:28.890Z,100889.06
2019-04-27T10:55:59.719Z,100889.73
2019-04-27T10:58:29.134Z,100893.74
2019-04-27T11:01:01.942Z,100877.95
2019-04-27T11:03:49.343Z,100891.30
2019-04-27T11:06:35.254Z,100880.75
2019-04-27T11:09:08.383Z,100880.75
2019-04-27T11:11:38.908Z,100884.42
2019-04-27T11:14:08.666Z,100884.09
2019-04-27T11:16:39.802Z,100885.61
2019-04-27T11:19:09.539Z,100875.41
2019-04-27T11:21:40.270Z,100875.22
2019-04-27T11:24:10.991Z,100879.59
2019-04-27T11:26:40.571Z,100882.49
2019-04-27T11:29:11.250Z,100883.52
2019-04-27T11:31:42.113Z,100877.58
2019-04-27T11:34:11.647Z,100867.41
2019-04-27T11:36:51.807Z,100870.11
2019-04-27T11:39:21.395Z,100867.23
2019-04-27T11:41:50.953Z,100856.22
2019-04-27T11:44:20.716Z,100856.22
2019-04-27T11:46:51.640Z,100851.77
2019-04-27T11:49:21.344Z,100855.46
2019-04-27T11:51:53.949Z,100848.88
2019-04-27T11:54:25.557Z,100850.08
2019-04-27T11:56:56.381Z,100848.70
2019-04-27T11:59:27.804Z,100854.45
2019-04-27T12:01:59.909Z,100845.89
2019-04-27T12:04:29.558Z,100845.89
2019-04-27T12:07:01.176Z,100851.38
2019-04-27T12:09:32.049Z,100845.92
2019-04-27T12:12:13.563Z,100844.67
2019-04-27T12:14:36.031Z,100851.77
2019-04-27T12:17:08.219Z,100847.55
2019-04-27T12:19:37.811Z,100840.26
2019-04-27T12:22:10.406Z,100836.70
2019-04-27T12:24:40.111Z,100839.74
2019-04-27T12:27:21.710Z,100845.42
2019-04-27T12:30:08.437Z,100833.51
2019-04-27T12:32:39.918Z,100832.94
2019-04-27T12:35:10.987Z,100834.34
2019-04-27T12:37:40.458Z,100816.50
2019-04-27T12:40:10.447Z,100828.54
2019-04-27T12:42:41.688Z,100825.67
2019-04-27T12:45:12.524Z,100816.66
2019-04-27T12:47:43.903Z,100813.77
2019-04-27T12:50:17.166Z,100824.91
2019-04-27T12:52:49.060Z,100816.64
2019-04-27T12:55:31.534Z,100816.77
2019-04-27T12:58:36.454Z,100812.20
2019-04-27T13:01:11.524Z,100810.83
2019-04-27T13:03:41.196Z,100806.25
2019-04-27T13:06:11.648Z,100796.23
2019-04-27T13:08:41.224Z,100791.98
2019-04-27T13:11:12.540Z,100801.99
2019-04-27T13:13:42.090Z,100796.22
2019-04-27T13:16:11.551Z,100799.11
2019-04-27T13:18:43.203Z,100792.64
2019-04-27T13:21:12.644Z,100788.03
2019-04-27T13:23:43.168Z,100787.50
2019-04-27T13:26:16.360Z,100788.38
2019-04-27T13:28:46.690Z,100786.70
2019-04-27T13:31:16.284Z,100784.34
2019-04-27T13:33:47.984Z,100783.13
2019-04-27T13:36:19.245Z,100802.31
2019-04-27T13:38:48.691Z,100827.78
2019-04-27T13:41:27.808Z,100852.11
2019-04-27T13:43:49.616Z,100866.80
2019-04-27T13:46:47.364Z,100876.27
2019-04-27T13:49:46.013Z,100887.97
2019-04-27T13:52:21.695Z,100886.25
2019-04-27T13:54:52.209Z,100884.47
2019-04-27T13:57:23.426Z,100886.09
2019-04-27T13:59:53.554Z,100885.91
2019-04-27T14:02:24.229Z,100891.74
2019-04-27T14:04:55.772Z,100904.13
2019-04-27T14:07:27.250Z,100912.63
2019-04-27T14:09:56.741Z,100907.58
2019-04-27T14:12:28.502Z,100894.73
2019-04-27T14:14:59.242Z,100881.00
2019-04-27T14:17:29.326Z,100888.22
2019-04-27T14:19:59.585Z,100894.72
2019-04-27T14:22:31.612Z,100903.05
2019-04-27T14:25:03.003Z,100901.45
2019-04-27T14:27:40.702Z,100906.48
2019-04-27T14:30:12.986Z,100907.17
2019-04-27T14:32:44.438Z,100908.62
2019-04-27T14:35:15.613Z,100900.09
2019-04-27T14:37:47.651Z,100908.13
2019-04-27T14:40:18.871Z,100908.77
2019-04-27T14:42:53.662Z,100906.42
2019-04-27T14:45:22.974Z,100913.47
2019-04-27T14:47:54.292Z,100914.53
2019-04-27T14:50:25.113Z,100915.37
2019-04-27T14:52:58.920Z,100910.05
2019-04-27T14:55:31.499Z,100910.30
2019-04-27T14:58:00.956Z,100916.17
2019-04-27T15:00:32.282Z,100917.41
2019-04-27T15:03:04.067Z,100910.65
2019-04-27T15:05:33.479Z,100907.84
2019-04-27T15:08:09.618Z,100912.80
2019-04-27T15:10:38.248Z,100906.14
2019-04-27T15:13:09.132Z,100910.02
2019-04-27T15:15:40.012Z,100916.88
2019-04-27T15:18:13.340Z,100915.72
2019-04-27T15:20:46.403Z,100909.51
2019-04-27T15:23:16.778Z,100911.58
2019-04-27T15:25:50.092Z,100918.41
2019-04-27T15:28:24.585Z,100915.86
2019-04-27T15:31:23.542Z,100916.67
2019-04-27T15:34:11.115Z,100916.39
2019-04-27T15:36:56.792Z,100914.65
2019-04-27T15:39:45.527Z,100929.80
2019-04-27T15:42:28.314Z,100927.56
2019-04-27T15:44:58.546Z,100924.31
2019-04-27T15:47:28.564Z,100932.61
2019-04-27T15:49:59.018Z,100932.40
2019-04-27T15:52:33.143Z,100929.02
2019-04-27T15:55:02.701Z,100932.78
2019-04-27T15:57:33.791Z,100929.84
2019-04-27T16:00:14.750Z,100933.91
2019-04-27T16:02:40.195Z,100934.75
2019-04-27T16:05:10.178Z,100942.03
2019-04-27T16:07:39.670Z,100946.52
2019-04-27T16:10:09.392Z,100952.80
2019-04-27T16:12:54.634Z,100954.80
2019-04-27T16:15:13.465Z,100959.94
2019-04-27T16:17:51.018Z,100959.02
2019-04-27T16:20:22.085Z,100964.75
2019-04-27T16:22:49.655Z,100966.05
2019-04-27T16:25:23.594Z,100970.47
2019-04-27T16:27:52.177Z,100975.30
2019-04-27T16:30:21.820Z,100971.70
2019-04-27T16:32:51.236Z,100973.22
2019-04-27T16:35:22.968Z,100975.09
2019-04-27T16:38:09.632Z,100972.76
2019-04-27T16:40:39.258Z,100972.20
2019-04-27T16:43:09.096Z,100975.22
2019-04-27T16:45:38.939Z,100972.03
2019-04-27T16:48:09.134Z,100970.80
2019-04-27T16:50:39.125Z,100978.74
2019-04-27T16:53:12.520Z,100975.45
2019-04-27T16:55:41.288Z,100976.81
2019-04-27T16:58:15.832Z,100982.84
2019-04-27T17:00:42.019Z,100983.70
2019-04-27T17:03:11.536Z,100981.77
2019-04-27T17:05:41.487Z,100980.03
2019-04-27T17:08:21.602Z,100989.47
2019-04-27T17:10:42.261Z,100981.53
2019-04-27T17:13:14.628Z,100985.84
2019-04-27T17:16:06.467Z,100983.36
2019-04-27T17:18:41.586Z,100979.33
2019-04-27T17:21:18.890Z,100984.47
2019-04-27T17:23:42.214Z,100984.48
2019-04-27T17:26:21.084Z,100990.08
2019-04-27T17:28:51.061Z,100992.66
2019-04-27T17:31:23.335Z,100990.45
2019-04-27T17:33:58.656Z,101003.75
2019-04-27T17:36:29.265Z,101003.86
2019-04-27T17:38:58.896Z,101008.45
2019-04-27T17:41:29.468Z,101012.19
2019-04-27T17:44:00.802Z,101012.50
2019-04-27T17:46:30.220Z,101015.14
2019-04-27T17:49:00.211Z,101018.04
2019-04-27T17:51:35.275Z,101016.37
2019-04-27T17:54:07.965Z,101023.29
2019-04-27T17:56:48.461Z,101028.12
2019-04-27T17:59:11.975Z,101028.90
2019-04-27T18:01:42.505Z,101030.36
2019-04-27T18:04:11.890Z,101033.64
2019-04-27T18:06:42.630Z,101035.58
2019-04-27T18:09:18.764Z,101042.20
2019-04-27T18:11:50.326Z,101041.81
2019-04-27T18:14:20.475Z,101037.81
2019-04-27T18:16:49.970Z,101044.05
2019-04-27T18:19:31.530Z,101038.00
2019-04-27T18:22:02.834Z,101040.06
2019-04-27T18:24:55.714Z,101044.83
2019-04-27T18:27:45.530Z,101040.80
2019-04-27T18:30:22.181Z,101043.19
2019-04-27T18:32:51.800Z,101040.53
2019-04-27T18:35:26.517Z,101041.13
2019-04-27T18:38:00.158Z,101050.55
2019-04-27T18:40:32.038Z,101047.45
2019-04-27T18:43:01.932Z,101058.16
2019-04-27T18:45:29.766Z,101061.55
2019-04-27T18:48:06.573Z,101065.84
2019-04-27T18:50:43.570Z,101071.61
2019-04-27T18:53:23.226Z,101075.72
2019-04-27T18:55:57.649Z,101085.06
2019-04-27T18:58:22.136Z,101083.86
2019-04-27T19:00:52.655Z,101088.47
2019-04-27T19:03:22.097Z,101087.88
2019-04-27T19:05:51.513Z,101097.30
2019-04-27T19:08:23.464Z,101103.41
2019-04-27T19:10:55.866Z,101116.00
2019-04-27T19:13:25.272Z,101117.70
2019-04-27T19:15:59.900Z,101121.48
2019-04-27T19:18:29.409Z,101125.84
2019-04-27T19:20:58.792Z,101133.89
2019-04-27T19:23:29.193Z,101133.19
2019-04-27T19:26:08.755Z,101134.17
2019-04-27T19:28:58.365Z,101131.70
2019-04-27T19:31:33.349Z,101138.94
2019-04-27T19:34:04.654Z,101141.08
2019-04-27T19:36:38.670Z,101142.72
2019-04-27T19:39:13.910Z,101147.02
2019-04-27T19:41:56.230Z,101144.81
2019-04-27T19:44:14.131Z,101148.11
2019-04-27T19:46:46.213Z,101151.73
2019-04-27T19:49:16.692Z,101159.91
2019-04-27T19:51:48.027Z,101155.42
2019-04-27T19:54:20.432Z,101157.89
2019-04-27T19:56:50.197Z,101156.77
2019-04-27T19:59:25.439Z,101160.96
2019-04-27T20:01:58.397Z,101162.23
2019-04-27T20:04:33.017Z,101158.90
2019-04-27T20:07:04.604Z,101163.70
2019-04-27T20:09:47.872Z,101165.17
2019-04-27T20:12:18.497Z,101163.55
2019-04-27T20:14:57.325Z,101162.50
2019-04-27T20:17:31.578Z,101163.09
2019-04-27T20:20:01.591Z,101162.64
2019-04-27T20:22:32.159Z,101170.39
2019-04-27T20:25:02.209Z,101168.73
2019-04-27T20:27:45.343Z,101178.39
2019-04-27T20:30:05.603Z,101180.03
2019-04-27T20:32:35.310Z,101174.48
2019-04-27T20:35:05.743Z,101176.08
2019-04-27T20:37:36.932Z,101172.95
2019-04-27T20:40:08.779Z,101183.11
2019-04-27T20:42:38.444Z,101185.48
2019-04-27T20:45:09.552Z,101185.48
2019-04-27T20:47:40.116Z,101186.25
2019-04-27T20:50:09.613Z,101186.93
2019-04-27T20:52:56.726Z,101191.50
2019-04-27T20:55:26.267Z,101194.17
2019-04-27T20:58:02.713Z,101192.75
2019-04-27T21:00:28.554Z,101200.67
2019-04-27T21:03:19.968Z,101200.59
2019-04-27T21:06:18.617Z,101209.45
2019-04-27T21:08:48.226Z,101204.78
2019-04-27T21:11:18.615Z,101213.39
2019-04-27T21:13:48.396Z,101211.22
2019-04-27T21:16:19.019Z,101213.90
2019-04-27T21:18:51.349Z,101211.80
2019-04-27T21:21:22.656Z,101215.95
2019-04-27T21:23:53.831Z,101201.35
2019-04-27T21:26:25.282Z,101211.38
2019-04-27T21:28:55.157Z,101211.38
2019-04-27T21:31:26.141Z,101220.45
2019-04-27T21:33:55.823Z,101224.76
2019-04-27T21:36:25.726Z,101227.13
2019-04-27T21:38:55.267Z,101223.32
2019-04-27T21:41:25.029Z,101226.95
2019-04-27T21:43:54.849Z,101231.25
2019-04-27T21:46:24.373Z,101232.78
2019-04-27T21:48:56.234Z,101231.14
2019-04-27T21:51:26.870Z,101230.67
2019-04-27T21:54:09.698Z,101226.27
2019-04-27T21:56:39.324Z,101232.41
2019-04-27T21:59:11.069Z,101227.90
2019-04-27T22:01:41.583Z,101229.03
2019-04-27T22:04:12.882Z,101231.14
2019-04-27T22:06:42.960Z,101223.61
2019-04-27T22:09:14.344Z,101231.61
2019-04-27T22:12:04.602Z,101230.13
2019-04-27T22:14:35.031Z,101235.38
2019-04-27T22:17:04.826Z,101231.55
2019-04-27T22:19:34.707Z,101237.46
2019-04-27T22:22:24.629Z,101238.39
2019-04-27T22:25:05.621Z,101239.96
2019-04-27T22:27:35.295Z,101249.96
2019-04-27T22:30:05.413Z,101247.86
2019-04-27T22:32:35.707Z,101244.25
2019-04-27T22:35:25.621Z,101244.72
2019-04-27T22:37:57.210Z,101244.25
2019-04-27T22:40:44.676Z,101246.32
2019-04-27T22:43:44.005Z,101246.32
2019-04-27T22:46:17.581Z,101243.85
2019-04-27T22:48:47.121Z,101243.75
2019-04-27T22:51:16.693Z,101247.66
2019-04-27T22:53:47.678Z,101255.59
2019-04-27T22:56:19.289Z,101250.64
2019-04-27T22:59:01.055Z,101252.23
2019-04-27T23:01:42.851Z,101249.30
2019-04-27T23:04:16.539Z,101257.52
2019-04-27T23:06:47.559Z,101252.44
2019-04-27T23:09:17.348Z,101257.89
2019-04-27T23:11:48.323Z,101258.76
2019-04-27T23:14:17.914Z,101256.55
2019-04-27T23:16:52.243Z,101252.55
2019-04-27T23:19:22.979Z,101251.51
2019-04-27T23:21:54.021Z,101249.20
2019-04-27T23:24:25.270Z,101259.03
2019-04-27T23:26:54.975Z,101258.26
2019-04-27T23:29:25.555Z,101262.47
2019-04-27T23:32:02.408Z,101266.28
2019-04-27T23:34:33.513Z,101271.83
2019-04-27T23:37:06.694Z,101269.66
2019-04-27T23:39:37.669Z,101268.75
2019-04-27T23:42:08.917Z,101266.27
2019-04-27T23:44:39.552Z,101265.30
2019-04-27T23:47:09.424Z,101261.80
2019-04-27T23:49:40.874Z,101264.58
2019-04-27T23:52:17.012Z,101268.58
2019-04-27T23:54:46.539Z,101269.52
2019-04-27T23:57:15.989Z,101277.08
2019-04-27T23:59:46.838Z,101273.84
